Terminal Aerodrome Forecast
Issued by NWS Caribou, ME

Home | Current Version | Previous Version | Text Only | Print | Product List | Glossary On
Versions: 1 2 3 4 5 6 7 8 9 10 11 12 13 14 15 16 17 18 19 20 21 22 23 24 25 26 27 28 29 30 31 32 33 34 35 36 37 38 39 40
000
FTUS41 KCAR 172331
TAFCAR
TAF
KCAR 172331Z 1800/1824 23003KT P6SM FEW120
     FM180600 17003KT P6SM BKN060
     FM181200 16004KT P6SM -SN SCT030 BKN040
     FM181600 17007KT 2SM -SN BR SCT015 OVC030
     FM182000 19008KT 3SM -SN BR OVC015=

USA.gov is the U.S. government's official web portal to all federal, state and local government web resources and services.